createdAt,value
2022-09-22T00:01:07.808Z,99.90
2022-09-22T00:03:41.889Z,99.90
2022-09-22T00:06:12.170Z,99.90
2022-09-22T00:08:41.949Z,99.90
2022-09-22T00:11:21.635Z,99.90
2022-09-22T00:13:52.394Z,99.90
2022-09-22T00:16:25.916Z,99.90
2022-09-22T00:18:52.663Z,99.90
2022-09-22T00:21:22.419Z,99.90
2022-09-22T00:23:49.870Z,99.90
2022-09-22T00:26:19.539Z,99.90
2022-09-22T00:28:47.801Z,99.90
2022-09-22T00:31:17.674Z,99.90
2022-09-22T00:33:46.311Z,99.90
2022-09-22T00:36:14.720Z,99.90
2022-09-22T00:38:41.968Z,99.90
2022-09-22T00:41:15.732Z,99.90
2022-09-22T00:43:46.989Z,99.90
2022-09-22T00:46:19.328Z,99.90
2022-09-22T00:48:54.980Z,99.90
2022-09-22T00:51:25.713Z,99.90
2022-09-22T00:53:54.253Z,99.90
2022-09-22T00:56:31.780Z,99.90
2022-09-22T00:59:06.988Z,99.90
2022-09-22T01:01:40.253Z,99.90
2022-09-22T01:04:07.956Z,99.90
2022-09-22T01:06:37.155Z,99.90
2022-09-22T01:09:04.260Z,99.90
2022-09-22T01:11:32.947Z,99.90
2022-09-22T01:14:29.289Z,99.90
2022-09-22T01:17:09.516Z,99.90
2022-09-22T01:20:01.023Z,99.90
2022-09-22T01:22:57.912Z,99.90
2022-09-22T01:25:39.627Z,99.90
2022-09-22T01:28:36.236Z,99.90
2022-09-22T01:31:18.967Z,99.90
2022-09-22T01:34:16.744Z,99.90
2022-09-22T01:37:00.861Z,99.90
2022-09-22T01:39:37.970Z,99.90
2022-09-22T01:42:18.189Z,99.90
2022-09-22T01:45:02.411Z,99.90
2022-09-22T01:47:53.288Z,99.90
2022-09-22T01:50:33.088Z,99.90
2022-09-22T01:53:06.193Z,99.90
2022-09-22T01:55:39.115Z,99.90
2022-09-22T01:58:12.741Z,99.90
2022-09-22T02:00:44.023Z,99.90
2022-09-22T02:03:17.263Z,99.90
2022-09-22T02:05:52.363Z,99.90
2022-09-22T02:08:50.771Z,99.90
2022-09-22T02:11:17.449Z,99.90
2022-09-22T02:13:44.947Z,99.90
2022-09-22T02:16:14.675Z,99.90
2022-09-22T02:18:54.331Z,99.90
2022-09-22T02:21:21.872Z,99.90
2022-09-22T02:23:49.731Z,99.90
2022-09-22T02:26:23.690Z,99.90
2022-09-22T02:28:53.973Z,99.90
2022-09-22T02:31:23.509Z,99.90
2022-09-22T02:33:51.926Z,99.90
2022-09-22T02:37:00.120Z,99.90
2022-09-22T02:39:39.016Z,99.90
2022-09-22T02:42:11.445Z,99.90
2022-09-22T02:44:47.298Z,99.90
2022-09-22T02:47:19.454Z,99.90
2022-09-22T02:49:48.043Z,99.90
2022-09-22T02:52:15.158Z,99.90
2022-09-22T02:54:41.806Z,99.90
2022-09-22T02:57:09.754Z,99.90
2022-09-22T02:59:36.434Z,99.90
2022-09-22T03:02:03.093Z,99.90
2022-09-22T03:04:29.786Z,99.90
2022-09-22T03:06:56.578Z,99.90
2022-09-22T03:09:23.240Z,99.90
2022-09-22T03:11:49.885Z,99.90
2022-09-22T03:14:16.557Z,99.90
2022-09-22T03:16:43.229Z,99.90
2022-09-22T03:19:10.092Z,99.90
2022-09-22T03:21:36.747Z,99.90
2022-09-22T03:24:03.952Z,99.90
2022-09-22T03:26:30.643Z,99.90
2022-09-22T03:28:57.459Z,99.90
2022-09-22T03:31:24.261Z,99.90
2022-09-22T03:33:52.834Z,99.90
2022-09-22T03:36:19.930Z,99.90
2022-09-22T03:38:46.671Z,99.90
2022-09-22T03:41:13.329Z,99.90
2022-09-22T03:43:39.994Z,99.90
2022-09-22T03:46:07.041Z,99.90
2022-09-22T03:48:33.752Z,99.90
2022-09-22T03:51:00.474Z,99.90
2022-09-22T03:53:27.833Z,99.90
2022-09-22T03:56:09.133Z,99.90
2022-09-22T03:58:37.310Z,99.90
2022-09-22T04:01:05.625Z,99.90
2022-09-22T04:03:32.836Z,99.90
2022-09-22T04:06:00.114Z,99.90
2022-09-22T04:08:26.861Z,99.90
2022-09-22T04:10:54.044Z,99.90
2022-09-22T04:13:20.755Z,99.90
2022-09-22T04:15:47.438Z,99.90
2022-09-22T04:18:14.497Z,99.90
2022-09-22T04:20:43.540Z,99.90
2022-09-22T04:23:11.379Z,99.90
2022-09-22T04:25:38.104Z,99.90
2022-09-22T04:28:05.928Z,99.90
2022-09-22T04:30:33.826Z,99.90
2022-09-22T04:33:01.132Z,99.90
2022-09-22T04:35:28.424Z,99.90
2022-09-22T04:37:56.156Z,99.90
2022-09-22T04:40:24.120Z,99.90
2022-09-22T04:42:51.450Z,99.90
2022-09-22T04:45:18.536Z,99.90
2022-09-22T04:47:50.004Z,99.90
2022-09-22T04:50:18.352Z,99.90
2022-09-22T04:52:46.883Z,99.90
2022-09-22T04:55:14.247Z,99.90
2022-09-22T04:57:41.643Z,99.90
2022-09-22T05:00:09.944Z,99.90
2022-09-22T05:02:36.667Z,99.90
2022-09-22T05:05:05.504Z,99.90
2022-09-22T05:07:44.858Z,99.90
2022-09-22T05:10:14.942Z,99.90
2022-09-22T05:12:42.470Z,99.90
2022-09-22T05:15:11.019Z,99.90
2022-09-22T05:17:38.343Z,99.90
2022-09-22T05:20:05.934Z,99.90
2022-09-22T05:22:37.655Z,99.90
2022-09-22T05:25:08.581Z,99.90
2022-09-22T05:27:35.853Z,99.90
2022-09-22T05:30:02.503Z,99.90
2022-09-22T05:32:29.143Z,99.90
2022-09-22T05:34:55.925Z,99.90
2022-09-22T05:37:22.627Z,99.90
2022-09-22T05:39:49.295Z,99.90
2022-09-22T05:42:15.921Z,99.90
2022-09-22T05:44:42.569Z,99.90
2022-09-22T05:47:09.271Z,99.90
2022-09-22T05:49:35.907Z,99.90
2022-09-22T05:52:03.169Z,99.90
2022-09-22T05:54:29.866Z,99.90
2022-09-22T05:56:56.592Z,99.90
2022-09-22T05:59:23.256Z,99.90
2022-09-22T06:01:49.919Z,99.90
2022-09-22T06:04:16.618Z,99.90
2022-09-22T06:06:43.352Z,99.90
2022-09-22T06:09:10.035Z,99.90
2022-09-22T06:11:36.802Z,99.90
2022-09-22T06:14:03.525Z,99.90
2022-09-22T06:16:31.731Z,99.90
2022-09-22T06:18:58.422Z,99.90
2022-09-22T06:21:25.886Z,99.90
2022-09-22T06:23:52.709Z,99.90
2022-09-22T06:26:19.395Z,99.90
2022-09-22T06:28:46.994Z,99.90
2022-09-22T06:31:15.283Z,99.90
2022-09-22T06:33:48.159Z,99.90
2022-09-22T06:36:23.150Z,99.90
2022-09-22T06:38:50.782Z,99.90
2022-09-22T06:41:17.487Z,99.90
2022-09-22T06:43:44.469Z,99.90
2022-09-22T06:46:13.546Z,99.90
2022-09-22T06:48:40.500Z,99.90
2022-09-22T06:51:07.272Z,99.90
2022-09-22T06:53:33.971Z,99.90
2022-09-22T06:56:03.272Z,99.90
2022-09-22T06:58:35.542Z,99.90
2022-09-22T07:01:14.886Z,99.90
2022-09-22T07:03:43.051Z,99.90
2022-09-22T07:06:10.950Z,99.90
2022-09-22T07:08:39.416Z,99.90
2022-09-22T07:11:08.340Z,99.80
2022-09-22T07:13:38.974Z,97.80
2022-09-22T07:16:12.043Z,97.00
2022-09-22T07:18:44.465Z,94.80
2022-09-22T07:21:16.670Z,93.80
2022-09-22T07:23:44.228Z,91.90
2022-09-22T07:26:17.037Z,91.20
2022-09-22T07:28:46.814Z,90.30
2022-09-22T07:31:15.348Z,90.20
2022-09-22T07:33:44.032Z,90.00
2022-09-22T07:36:18.882Z,88.00
2022-09-22T07:38:51.315Z,88.60
2022-09-22T07:41:23.039Z,86.40
2022-09-22T07:43:52.225Z,86.20
2022-09-22T07:46:19.799Z,84.90
2022-09-22T07:48:47.933Z,84.90
2022-09-22T07:51:23.473Z,84.50
2022-09-22T07:54:07.349Z,81.90
2022-09-22T07:56:43.163Z,82.20
2022-09-22T07:59:11.837Z,81.40
2022-09-22T08:01:44.196Z,82.30
2022-09-22T08:04:12.525Z,80.70
2022-09-22T08:06:39.175Z,80.20
2022-09-22T08:09:06.875Z,79.10
2022-09-22T08:11:33.889Z,78.30
2022-09-22T08:14:06.397Z,78.00
2022-09-22T08:16:36.073Z,78.80
2022-09-22T08:19:10.443Z,80.10
2022-09-22T08:21:47.773Z,80.50
2022-09-22T08:24:21.212Z,77.80
2022-09-22T08:26:50.290Z,77.30
2022-09-22T08:29:16.986Z,77.80
2022-09-22T08:31:45.353Z,77.10
2022-09-22T08:34:14.069Z,77.50
2022-09-22T08:36:46.107Z,79.30
2022-09-22T08:39:12.794Z,78.10
2022-09-22T08:41:55.144Z,77.30
2022-09-22T08:44:46.436Z,75.70
2022-09-22T08:48:08.133Z,77.70
2022-09-22T08:51:18.183Z,77.40
2022-09-22T08:53:50.315Z,79.30
2022-09-22T08:56:36.812Z,75.50
2022-09-22T08:59:14.192Z,76.80
2022-09-22T09:01:55.772Z,76.20
2022-09-22T09:04:44.903Z,76.80
2022-09-22T09:07:11.599Z,77.00
2022-09-22T09:10:00.352Z,78.20
2022-09-22T09:12:52.981Z,78.80
2022-09-22T09:15:30.546Z,76.50
2022-09-22T09:18:02.765Z,77.60
2022-09-22T09:20:42.107Z,76.60
2022-09-22T09:23:21.286Z,74.50
2022-09-22T09:25:52.286Z,76.30
2022-09-22T09:28:27.710Z,75.20
2022-09-22T09:31:05.867Z,74.20
2022-09-22T09:33:48.501Z,73.70
2022-09-22T09:36:18.551Z,73.40
2022-09-22T09:38:51.789Z,73.10
2022-09-22T09:41:24.959Z,77.40
2022-09-22T09:43:54.443Z,76.50
2022-09-22T09:46:39.833Z,74.30
2022-09-22T09:49:17.791Z,72.70
2022-09-22T09:51:51.513Z,73.40
2022-09-22T09:54:19.378Z,71.30
2022-09-22T09:57:06.472Z,72.20
2022-09-22T09:59:52.817Z,70.70
2022-09-22T10:02:27.350Z,71.80
2022-09-22T10:05:07.646Z,72.50
2022-09-22T10:07:44.450Z,72.60
2022-09-22T10:10:29.196Z,71.40
2022-09-22T10:13:21.820Z,70.90
2022-09-22T10:16:02.020Z,69.70
2022-09-22T10:18:40.454Z,72.10
2022-09-22T10:21:19.855Z,72.10
2022-09-22T10:23:54.568Z,72.70
2022-09-22T10:26:32.732Z,73.10
2022-09-22T10:29:20.845Z,75.80
2022-09-22T10:32:02.559Z,78.20
2022-09-22T10:34:41.149Z,78.70
2022-09-22T10:37:11.565Z,79.10
2022-09-22T10:39:51.344Z,79.50
2022-09-22T10:42:28.550Z,78.60
2022-09-22T10:45:00.867Z,80.20
2022-09-22T10:47:44.761Z,82.10
2022-09-22T10:50:38.266Z,79.30
2022-09-22T10:53:27.384Z,81.90
2022-09-22T10:56:14.921Z,83.40
2022-09-22T10:58:58.151Z,83.00
2022-09-22T11:01:51.277Z,82.20
2022-09-22T11:04:47.261Z,82.50
2022-09-22T11:07:51.676Z,82.30
2022-09-22T11:10:45.695Z,83.90
2022-09-22T11:14:01.062Z,81.90
2022-09-22T11:16:49.897Z,83.90
2022-09-22T11:19:33.119Z,83.20
2022-09-22T11:22:47.469Z,81.70
2022-09-22T11:25:45.447Z,83.70
2022-09-22T11:29:00.621Z,83.40
2022-09-22T11:31:43.026Z,82.60
2022-09-22T11:34:51.917Z,83.90
2022-09-22T11:37:33.165Z,82.90
2022-09-22T11:40:20.021Z,84.40
2022-09-22T11:43:05.735Z,84.30
2022-09-22T11:45:42.778Z,85.90
2022-09-22T11:48:26.442Z,84.30
2022-09-22T11:51:32.004Z,84.50
2022-09-22T11:54:14.513Z,84.60
2022-09-22T11:56:53.286Z,85.30
2022-09-22T11:59:33.760Z,85.00
2022-09-22T12:02:06.435Z,86.80
2022-09-22T12:04:42.845Z,85.30
2022-09-22T12:07:17.162Z,84.10
2022-09-22T12:09:52.100Z,85.00
2022-09-22T12:12:22.506Z,85.90
2022-09-22T12:14:59.142Z,85.20
2022-09-22T12:17:46.994Z,85.60
2022-09-22T12:20:39.369Z,87.00
2022-09-22T12:23:14.478Z,85.50
2022-09-22T12:25:49.216Z,88.30
2022-09-22T12:28:19.727Z,86.90
2022-09-22T12:31:10.572Z,87.30
2022-09-22T12:33:39.838Z,86.90
2022-09-22T12:36:07.392Z,86.40
2022-09-22T12:38:34.747Z,85.70
2022-09-22T12:41:04.381Z,88.30
2022-09-22T12:43:33.961Z,88.00
2022-09-22T12:46:06.264Z,88.40
2022-09-22T12:48:36.146Z,89.00
2022-09-22T12:51:24.789Z,90.50
2022-09-22T12:54:12.329Z,90.10
2022-09-22T12:56:53.099Z,89.60
2022-09-22T12:59:38.583Z,89.00
2022-09-22T13:02:13.997Z,89.60
2022-09-22T13:04:56.328Z,88.80
2022-09-22T13:07:44.371Z,88.40
2022-09-22T13:10:26.575Z,87.70
2022-09-22T13:13:02.706Z,89.50
2022-09-22T13:15:45.658Z,89.40
2022-09-22T13:18:34.867Z,90.40
2022-09-22T13:21:11.941Z,89.40
2022-09-22T13:23:54.327Z,89.00
2022-09-22T13:26:37.739Z,87.70
2022-09-22T13:29:17.299Z,89.60
2022-09-22T13:31:46.512Z,88.60
2022-09-22T13:34:34.304Z,90.10
2022-09-22T13:37:14.914Z,90.20
2022-09-22T13:39:47.404Z,90.10
2022-09-22T13:42:17.016Z,89.70
2022-09-22T13:44:50.931Z,89.30
2022-09-22T13:47:23.233Z,90.70
2022-09-22T13:49:56.311Z,90.20
2022-09-22T13:52:27.442Z,90.30
2022-09-22T13:54:59.416Z,88.60
2022-09-22T13:57:31.255Z,89.40
2022-09-22T14:00:00.135Z,90.50
2022-09-22T14:02:31.508Z,89.00
2022-09-22T14:05:08.721Z,88.30
2022-09-22T14:07:49.661Z,87.60
2022-09-22T14:10:24.829Z,88.00
2022-09-22T14:12:51.601Z,88.70
2022-09-22T14:15:40.168Z,88.20
2022-09-22T14:18:17.013Z,89.30
2022-09-22T14:20:45.519Z,88.40
2022-09-22T14:23:23.466Z,89.40
2022-09-22T14:25:50.204Z,89.00
2022-09-22T14:28:24.920Z,87.40
2022-09-22T14:30:52.278Z,88.70
2022-09-22T14:33:27.109Z,89.30
2022-09-22T14:36:03.428Z,88.90
2022-09-22T14:38:34.917Z,90.00
2022-09-22T14:41:03.130Z,90.50
2022-09-22T14:43:42.167Z,90.30
2022-09-22T14:46:33.711Z,90.60
2022-09-22T14:49:36.977Z,90.70
2022-09-22T14:52:28.604Z,90.10
2022-09-22T14:54:59.369Z,90.10
2022-09-22T14:57:27.619Z,90.10
2022-09-22T15:00:16.682Z,90.70
2022-09-22T15:02:51.819Z,90.60
2022-09-22T15:05:29.568Z,90.10
2022-09-22T15:07:58.519Z,90.60
2022-09-22T15:10:34.061Z,90.50
2022-09-22T15:13:27.016Z,91.70
2022-09-22T15:15:54.173Z,90.10
2022-09-22T15:18:21.747Z,90.60
2022-09-22T15:20:58.885Z,90.80
2022-09-22T15:23:44.919Z,90.90
2022-09-22T15:26:25.172Z,91.00
2022-09-22T15:28:55.389Z,90.20
2022-09-22T15:31:26.899Z,90.60
2022-09-22T15:34:00.285Z,89.60
2022-09-22T15:36:33.014Z,90.30
2022-09-22T15:39:06.966Z,90.40
2022-09-22T15:41:34.981Z,89.60
2022-09-22T15:44:03.086Z,89.80
2022-09-22T15:46:38.014Z,89.50
2022-09-22T15:49:22.691Z,90.00
2022-09-22T15:51:50.464Z,88.70
2022-09-22T15:54:24.056Z,89.60
2022-09-22T15:56:57.820Z,90.00
2022-09-22T15:59:28.249Z,90.70
2022-09-22T16:01:56.964Z,90.50
2022-09-22T16:04:24.208Z,90.50
2022-09-22T16:07:01.190Z,90.50
2022-09-22T16:09:28.229Z,90.50
2022-09-22T16:11:55.935Z,90.80
2022-09-22T16:14:23.255Z,90.50
2022-09-22T16:16:52.363Z,90.90
2022-09-22T16:19:20.422Z,90.20
2022-09-22T16:21:54.345Z,90.10
2022-09-22T16:24:22.692Z,90.00
2022-09-22T16:26:51.950Z,90.50
2022-09-22T16:29:19.156Z,90.60
2022-09-22T16:31:46.399Z,90.30
2022-09-22T16:34:13.659Z,90.80
2022-09-22T16:36:41.791Z,91.00
2022-09-22T16:39:09.082Z,91.00
2022-09-22T16:41:36.879Z,91.50
2022-09-22T16:44:04.720Z,91.20
2022-09-22T16:46:35.217Z,92.10
2022-09-22T16:49:07.627Z,92.40
2022-09-22T16:51:40.860Z,92.60
2022-09-22T16:54:12.276Z,92.50
2022-09-22T16:56:39.750Z,92.90
2022-09-22T16:59:07.495Z,94.20
2022-09-22T17:01:37.701Z,93.40
2022-09-22T17:04:06.335Z,94.60
2022-09-22T17:06:33.908Z,94.40
2022-09-22T17:09:00.914Z,95.20
2022-09-22T17:11:30.921Z,95.70
2022-09-22T17:14:11.897Z,96.10
2022-09-22T17:16:47.985Z,96.90
2022-09-22T17:19:20.115Z,97.70
2022-09-22T17:21:55.307Z,98.30
2022-09-22T17:24:24.796Z,98.60
2022-09-22T17:26:58.538Z,99.20
2022-09-22T17:29:31.712Z,99.80
2022-09-22T17:32:03.533Z,99.90
2022-09-22T17:34:46.660Z,99.90
2022-09-22T17:37:15.947Z,99.90
2022-09-22T17:39:43.579Z,99.90
2022-09-22T17:42:11.071Z,99.90
2022-09-22T17:44:37.941Z,99.90
2022-09-22T17:47:23.240Z,99.90
2022-09-22T17:50:08.533Z,99.90
2022-09-22T17:52:53.697Z,99.90
2022-09-22T17:55:22.892Z,99.90
2022-09-22T17:57:51.960Z,99.90
2022-09-22T18:00:23.751Z,99.90
2022-09-22T18:02:53.833Z,99.90
2022-09-22T18:05:25.512Z,99.90
2022-09-22T18:07:57.826Z,99.90
2022-09-22T18:10:32.217Z,99.90
2022-09-22T18:12:59.713Z,99.90
2022-09-22T18:15:28.109Z,99.90
2022-09-22T18:17:57.702Z,99.90
2022-09-22T18:20:25.337Z,99.90
2022-09-22T18:22:52.249Z,99.90
2022-09-22T18:25:19.764Z,99.90
2022-09-22T18:27:48.485Z,99.90
2022-09-22T18:30:17.050Z,99.90
2022-09-22T18:32:44.028Z,99.90
2022-09-22T18:35:12.847Z,99.90
2022-09-22T18:37:39.982Z,99.90
2022-09-22T18:40:08.079Z,99.90
2022-09-22T18:42:36.620Z,99.90
2022-09-22T18:45:04.089Z,99.90
2022-09-22T18:47:30.925Z,99.90
2022-09-22T18:49:59.192Z,99.90
2022-09-22T18:52:26.078Z,99.90
2022-09-22T18:54:54.325Z,99.90
2022-09-22T18:57:22.882Z,99.90
2022-09-22T18:59:51.466Z,99.90
2022-09-22T19:02:21.368Z,99.90
2022-09-22T19:04:49.285Z,99.90
2022-09-22T19:07:38.917Z,99.90
2022-09-22T19:10:09.504Z,99.90
2022-09-22T19:12:39.319Z,99.90
2022-09-22T19:15:16.617Z,99.90
2022-09-22T19:17:47.832Z,99.90
2022-09-22T19:20:21.478Z,99.90
2022-09-22T19:22:50.846Z,99.90
2022-09-22T19:25:22.078Z,99.90
2022-09-22T19:27:51.230Z,99.90
2022-09-22T19:30:22.895Z,99.90
2022-09-22T19:32:57.809Z,99.90
2022-09-22T19:35:26.292Z,99.90
2022-09-22T19:37:59.378Z,99.90
2022-09-22T19:40:27.255Z,99.90
2022-09-22T19:42:55.525Z,99.90
2022-09-22T19:45:25.313Z,99.90
2022-09-22T19:47:57.303Z,99.90
2022-09-22T19:50:26.450Z,99.90
2022-09-22T19:52:54.344Z,99.90
2022-09-22T19:55:23.344Z,99.90
2022-09-22T19:57:52.656Z,99.90
2022-09-22T20:00:27.004Z,99.90
2022-09-22T20:03:00.950Z,99.90
2022-09-22T20:05:34.073Z,99.90
2022-09-22T20:08:01.735Z,99.90
2022-09-22T20:10:31.961Z,99.90
2022-09-22T20:12:59.927Z,99.90
2022-09-22T20:15:48.037Z,99.90
2022-09-22T20:18:15.761Z,99.90
2022-09-22T20:20:45.179Z,99.90
2022-09-22T20:23:21.091Z,99.90
2022-09-22T20:25:52.622Z,99.90
2022-09-22T20:28:21.329Z,99.90
2022-09-22T20:30:53.434Z,99.90
2022-09-22T20:33:24.638Z,99.90
2022-09-22T20:35:55.788Z,99.90
2022-09-22T20:38:26.621Z,99.90
2022-09-22T20:40:54.373Z,99.90
2022-09-22T20:43:21.993Z,99.90
2022-09-22T20:45:49.920Z,99.90
2022-09-22T20:48:23.508Z,99.90
2022-09-22T20:50:58.642Z,99.90
2022-09-22T20:53:29.996Z,99.90
2022-09-22T20:56:08.525Z,99.90
2022-09-22T20:58:50.815Z,99.90
2022-09-22T21:01:19.155Z,99.90
2022-09-22T21:03:47.262Z,99.90
2022-09-22T21:06:16.306Z,99.90
2022-09-22T21:09:03.277Z,99.90
2022-09-22T21:11:31.251Z,99.90
2022-09-22T21:14:05.888Z,99.90
2022-09-22T21:16:37.585Z,99.90
2022-09-22T21:19:04.715Z,99.90
2022-09-22T21:21:32.989Z,99.90
2022-09-22T21:24:09.532Z,99.90
2022-09-22T21:26:37.487Z,99.90
2022-09-22T21:29:05.467Z,99.90
2022-09-22T21:31:33.597Z,99.90
2022-09-22T21:34:00.715Z,99.90
2022-09-22T21:36:27.638Z,99.90
2022-09-22T21:38:57.236Z,99.90
2022-09-22T21:41:27.304Z,99.90
2022-09-22T21:43:55.166Z,99.90
2022-09-22T21:46:29.790Z,99.90
2022-09-22T21:49:00.858Z,99.90
2022-09-22T21:51:30.390Z,99.90
2022-09-22T21:53:58.879Z,99.90
2022-09-22T21:56:27.364Z,99.90
2022-09-22T21:58:56.408Z,99.90
2022-09-22T22:01:26.399Z,99.90
2022-09-22T22:03:57.014Z,99.90
2022-09-22T22:06:33.027Z,99.90
2022-09-22T22:09:04.885Z,99.90
2022-09-22T22:11:38.323Z,99.90
2022-09-22T22:14:08.827Z,99.90
2022-09-22T22:16:38.873Z,99.90
2022-09-22T22:19:08.585Z,99.90
2022-09-22T22:21:37.139Z,99.90
2022-09-22T22:24:14.535Z,99.90
2022-09-22T22:26:43.586Z,99.90
2022-09-22T22:29:14.464Z,99.90
2022-09-22T22:31:42.683Z,99.90
2022-09-22T22:34:12.945Z,99.90
2022-09-22T22:36:41.546Z,99.90
2022-09-22T22:39:13.308Z,99.90
2022-09-22T22:41:44.959Z,99.90
2022-09-22T22:44:17.004Z,99.90
2022-09-22T22:46:45.682Z,99.90
2022-09-22T22:49:14.279Z,99.90
2022-09-22T22:51:43.575Z,99.90
2022-09-22T22:54:12.298Z,99.90
2022-09-22T22:56:42.844Z,99.90
2022-09-22T22:59:12.125Z,99.90
2022-09-22T23:01:40.785Z,99.90
2022-09-22T23:04:10.726Z,99.90
2022-09-22T23:06:44.591Z,99.90
2022-09-22T23:09:15.480Z,99.90
2022-09-22T23:11:44.165Z,99.90
2022-09-22T23:14:13.222Z,99.90
2022-09-22T23:16:45.871Z,99.90
2022-09-22T23:19:18.504Z,99.90
2022-09-22T23:21:46.463Z,99.90
2022-09-22T23:24:16.688Z,99.90
2022-09-22T23:26:45.587Z,99.90
2022-09-22T23:29:12.973Z,99.90
2022-09-22T23:31:39.815Z,99.90
2022-09-22T23:34:06.902Z,99.90
2022-09-22T23:36:33.736Z,99.90
2022-09-22T23:39:04.127Z,99.90
2022-09-22T23:41:36.385Z,99.90
2022-09-22T23:44:06.828Z,99.90
2022-09-22T23:46:34.314Z,99.90
2022-09-22T23:49:01.262Z,99.90
2022-09-22T23:51:28.369Z,99.90
2022-09-22T23:53:56.199Z,99.90
2022-09-22T23:56:23.616Z,99.90
2022-09-22T23:58:53.960Z,99.90
